EDLN

Mönchengladbach Airport

Mönchengladbach, Germany
METAR EDLN 251920Z 06012KT 020V100 CAVOK M02/M11 Q1028
Observed Flight Rules
Feb-25 @ 19:20 UTC (8 hours ago) Visual Flight Rules
Wind Visibility Clouds
60° at 12 knots 10,000+ meters
  • Clear skies
Temperatures Readings
Current -2°C / 28°F
Dewpoint -11°C / 12°F
Humidity 51%
Altimeter 30.35" Hg
Pressure 1028 hPa
Elevation 38
METAR EDLN 251920Z 06012KT 020V100 CAVOK M02/M11 Q1028
Observed Flight Rules
Feb-25 @ 19:20 UTC
(8 hours ago)
VFR
Wind Visibility
60° at 12 knots 10,000+ meters
Clouds
  • Clear skies
Temperature Dewpoint
-2°C / 28°F -11°C / 12°F
Humidity Altimeter Pressure
51% 30.35" Hg 1028 hPa